sensor_id;sensor_type;location;lat;lon;timestamp;pressure;altitude;pressure_sealevel;temperature;humidity
28626;BME280;18905;42.668;23.364;2022-07-25T00:01:18;95126.47;;;32.17;56.05
28626;BME280;18905;42.668;23.364;2022-07-25T00:03:44;95085.31;;;32.17;54.75
28626;BME280;18905;42.668;23.364;2022-07-25T00:06:09;95127.75;;;31.82;56.95
28626;BME280;18905;42.668;23.364;2022-07-25T00:08:35;95128.88;;;31.72;58.84
28626;BME280;18905;42.668;23.364;2022-07-25T00:11:01;95106.25;;;31.23;62.36
28626;BME280;18905;42.668;23.364;2022-07-25T00:13:26;95121.19;;;31.17;62.28
28626;BME280;18905;42.668;23.364;2022-07-25T00:15:52;95120.75;;;30.93;63.90
28626;BME280;18905;42.668;23.364;2022-07-25T00:18:17;95116.78;;;30.28;67.45
28626;BME280;18905;42.668;23.364;2022-07-25T00:20:42;95118.72;;;31.19;64.28
28626;BME280;18905;42.668;23.364;2022-07-25T00:23:08;95119.50;;;31.78;63.15
28626;BME280;18905;42.668;23.364;2022-07-25T00:25:33;95083.06;;;32.03;59.15
28626;BME280;18905;42.668;23.364;2022-07-25T00:27:59;95111.72;;;32.38;58.27
28626;BME280;18905;42.668;23.364;2022-07-25T00:30:24;95098.41;;;31.77;60.68
28626;BME280;18905;42.668;23.364;2022-07-25T00:32:49;95092.78;;;31.43;65.42
28626;BME280;18905;42.668;23.364;2022-07-25T00:35:15;95096.97;;;31.94;61.12
28626;BME280;18905;42.668;23.364;2022-07-25T00:37:40;95075.84;;;32.15;60.59
28626;BME280;18905;42.668;23.364;2022-07-25T00:40:06;95095.22;;;31.54;63.73
28626;BME280;18905;42.668;23.364;2022-07-25T00:42:32;95089.50;;;31.23;65.87
28626;BME280;18905;42.668;23.364;2022-07-25T00:44:57;95057.19;;;30.88;65.21
28626;BME280;18905;42.668;23.364;2022-07-25T00:47:24;95037.13;;;30.81;63.39
28626;BME280;18905;42.668;23.364;2022-07-25T00:49:49;95084.69;;;31.36;61.82
28626;BME280;18905;42.668;23.364;2022-07-25T00:52:15;95099.97;;;31.19;64.86
28626;BME280;18905;42.668;23.364;2022-07-25T00:54:40;95075.78;;;31.29;61.81
28626;BME280;18905;42.668;23.364;2022-07-25T00:57:06;95102.63;;;31.82;61.39
28626;BME280;18905;42.668;23.364;2022-07-25T00:59:31;95075.47;;;31.82;58.50
28626;BME280;18905;42.668;23.364;2022-07-25T01:01:57;95101.34;;;30.90;63.86
28626;BME280;18905;42.668;23.364;2022-07-25T01:04:22;95105.16;;;29.76;71.28
28626;BME280;18905;42.668;23.364;2022-07-25T01:06:48;95083.59;;;28.72;77.61
28626;BME280;18905;42.668;23.364;2022-07-25T01:09:14;95084.31;;;29.08;77.33
28626;BME280;18905;42.668;23.364;2022-07-25T01:11:40;95082.56;;;30.15;69.94
28626;BME280;18905;42.668;23.364;2022-07-25T01:14:06;95073.56;;;30.36;68.37
28626;BME280;18905;42.668;23.364;2022-07-25T01:16:31;95096.31;;;30.97;64.72
28626;BME280;18905;42.668;23.364;2022-07-25T01:18:57;95097.44;;;31.00;63.81
28626;BME280;18905;42.668;23.364;2022-07-25T01:21:23;95054.94;;;30.96;63.61
28626;BME280;18905;42.668;23.364;2022-07-25T01:23:49;95064.50;;;31.07;64.58
28626;BME280;18905;42.668;23.364;2022-07-25T01:26:15;95058.53;;;30.71;64.76
28626;BME280;18905;42.668;23.364;2022-07-25T01:28:40;95081.28;;;30.82;66.64
28626;BME280;18905;42.668;23.364;2022-07-25T01:31:05;95058.41;;;30.50;69.71
28626;BME280;18905;42.668;23.364;2022-07-25T01:33:31;95067.09;;;30.27;74.16
28626;BME280;18905;42.668;23.364;2022-07-25T01:35:57;95091.53;;;30.60;72.43
28626;BME280;18905;42.668;23.364;2022-07-25T01:38:22;95078.84;;;30.06;75.14
28626;BME280;18905;42.668;23.364;2022-07-25T01:40:48;95084.72;;;29.95;76.67
28626;BME280;18905;42.668;23.364;2022-07-25T01:43:13;95100.47;;;29.73;77.87
28626;BME280;18905;42.668;23.364;2022-07-25T01:45:38;95061.97;;;29.27;79.86
28626;BME280;18905;42.668;23.364;2022-07-25T01:48:04;95065.38;;;29.19;81.82
28626;BME280;18905;42.668;23.364;2022-07-25T01:50:29;95069.97;;;29.54;76.65
28626;BME280;18905;42.668;23.364;2022-07-25T01:52:55;95091.41;;;30.26;73.13
28626;BME280;18905;42.668;23.364;2022-07-25T01:55:21;95102.66;;;30.60;70.92
28626;BME280;18905;42.668;23.364;2022-07-25T01:57:46;95100.41;;;31.30;66.69
28626;BME280;18905;42.668;23.364;2022-07-25T02:00:13;95106.78;;;31.31;65.40
28626;BME280;18905;42.668;23.364;2022-07-25T02:02:40;95098.88;;;31.17;66.80
28626;BME280;18905;42.668;23.364;2022-07-25T02:05:07;95106.50;;;31.50;63.94
28626;BME280;18905;42.668;23.364;2022-07-25T02:07:33;95084.91;;;31.17;64.60
28626;BME280;18905;42.668;23.364;2022-07-25T02:09:59;95107.56;;;31.06;67.64
28626;BME280;18905;42.668;23.364;2022-07-25T02:12:24;95093.78;;;30.12;71.20
28626;BME280;18905;42.668;23.364;2022-07-25T02:14:49;95045.97;;;29.31;73.81
28626;BME280;18905;42.668;23.364;2022-07-25T02:17:15;95052.16;;;28.07;85.14
28626;BME280;18905;42.668;23.364;2022-07-25T02:19:40;95095.94;;;28.35;85.37
28626;BME280;18905;42.668;23.364;2022-07-25T02:22:06;95064.59;;;29.47;74.46
28626;BME280;18905;42.668;23.364;2022-07-25T02:24:32;95080.03;;;29.92;72.46
28626;BME280;18905;42.668;23.364;2022-07-25T02:26:57;95111.66;;;30.39;70.35
28626;BME280;18905;42.668;23.364;2022-07-25T02:29:23;95093.31;;;30.54;69.85
28626;BME280;18905;42.668;23.364;2022-07-25T02:31:48;95078.16;;;30.55;70.65
28626;BME280;18905;42.668;23.364;2022-07-25T02:34:16;95073.91;;;30.63;69.98
28626;BME280;18905;42.668;23.364;2022-07-25T02:36:41;95111.25;;;31.03;67.84
28626;BME280;18905;42.668;23.364;2022-07-25T02:39:07;95077.41;;;30.67;69.29
28626;BME280;18905;42.668;23.364;2022-07-25T02:41:32;95098.78;;;30.95;68.21
28626;BME280;18905;42.668;23.364;2022-07-25T02:43:58;95086.59;;;31.14;66.58
28626;BME280;18905;42.668;23.364;2022-07-25T02:46:23;95083.03;;;31.01;66.72
28626;BME280;18905;42.668;23.364;2022-07-25T02:48:48;95080.16;;;30.92;67.15
28626;BME280;18905;42.668;23.364;2022-07-25T02:51:14;95070.75;;;31.11;64.90
28626;BME280;18905;42.668;23.364;2022-07-25T02:53:39;95064.69;;;30.79;67.02
28626;BME280;18905;42.668;23.364;2022-07-25T02:56:05;95054.53;;;30.72;66.30
28626;BME280;18905;42.668;23.364;2022-07-25T02:58:30;95101.56;;;30.45;70.73
28626;BME280;18905;42.668;23.364;2022-07-25T03:00:56;95099.25;;;30.81;69.61
28626;BME280;18905;42.668;23.364;2022-07-25T03:03:21;95082.38;;;31.22;66.31
28626;BME280;18905;42.668;23.364;2022-07-25T03:05:47;95110.28;;;31.56;65.68
28626;BME280;18905;42.668;23.364;2022-07-25T03:08:12;95102.94;;;31.71;64.81
28626;BME280;18905;42.668;23.364;2022-07-25T03:10:37;95102.28;;;31.67;65.03
28626;BME280;18905;42.668;23.364;2022-07-25T03:13:03;95102.50;;;31.73;64.63
28626;BME280;18905;42.668;23.364;2022-07-25T03:15:28;95054.47;;;31.10;65.90
28626;BME280;18905;42.668;23.364;2022-07-25T03:17:54;95104.47;;;31.51;65.43
28626;BME280;18905;42.668;23.364;2022-07-25T03:20:19;95104.44;;;31.76;63.46
28626;BME280;18905;42.668;23.364;2022-07-25T03:22:44;95087.81;;;31.60;64.13
28626;BME280;18905;42.668;23.364;2022-07-25T03:25:10;95063.22;;;31.67;62.69
28626;BME280;18905;42.668;23.364;2022-07-25T03:27:36;95103.78;;;31.93;62.69
28626;BME280;18905;42.668;23.364;2022-07-25T03:30:02;95100.16;;;31.84;63.50
28626;BME280;18905;42.668;23.364;2022-07-25T03:32:27;95094.13;;;31.51;65.24
28626;BME280;18905;42.668;23.364;2022-07-25T03:34:52;95109.75;;;31.49;65.42
28626;BME280;18905;42.668;23.364;2022-07-25T03:37:18;95094.47;;;31.41;65.48
28626;BME280;18905;42.668;23.364;2022-07-25T03:39:44;95088.69;;;31.35;63.61
28626;BME280;18905;42.668;23.364;2022-07-25T03:42:09;95060.13;;;31.19;64.45
28626;BME280;18905;42.668;23.364;2022-07-25T03:44:35;95090.88;;;31.53;59.63
28626;BME280;18905;42.668;23.364;2022-07-25T03:47:02;95102.06;;;31.74;58.56
28626;BME280;18905;42.668;23.364;2022-07-25T03:49:27;95111.25;;;31.28;58.88
28626;BME280;18905;42.668;23.364;2022-07-25T03:51:53;95109.28;;;30.91;59.43
28626;BME280;18905;42.668;23.364;2022-07-25T03:54:18;95110.69;;;31.21;57.92
28626;BME280;18905;42.668;23.364;2022-07-25T03:56:48;95117.75;;;30.88;57.12
28626;BME280;18905;42.668;23.364;2022-07-25T03:59:17;95121.53;;;30.94;58.64
28626;BME280;18905;42.668;23.364;2022-07-25T04:01:45;95113.94;;;30.03;61.64
28626;BME280;18905;42.668;23.364;2022-07-25T04:04:11;95127.94;;;28.43;64.44
28626;BME280;18905;42.668;23.364;2022-07-25T04:06:37;95098.19;;;27.23;64.05
28626;BME280;18905;42.668;23.364;2022-07-25T04:09:04;95103.84;;;27.78;57.63
28626;BME280;18905;42.668;23.364;2022-07-25T04:11:29;95125.59;;;27.83;51.47
28626;BME280;18905;42.668;23.364;2022-07-25T04:13:55;95117.06;;;27.31;67.02
28626;BME280;18905;42.668;23.364;2022-07-25T04:16:21;95122.47;;;26.66;73.61
28626;BME280;18905;42.668;23.364;2022-07-25T04:18:46;95119.25;;;26.94;64.67
28626;BME280;18905;42.668;23.364;2022-07-25T04:21:12;95113.84;;;26.60;69.09
28626;BME280;18905;42.668;23.364;2022-07-25T04:23:37;95084.94;;;26.08;68.65
28626;BME280;18905;42.668;23.364;2022-07-25T04:26:03;95117.19;;;25.55;83.49
28626;BME280;18905;42.668;23.364;2022-07-25T04:28:29;95100.44;;;25.69;83.37
28626;BME280;18905;42.668;23.364;2022-07-25T04:30:54;95090.63;;;25.27;84.98
28626;BME280;18905;42.668;23.364;2022-07-25T04:33:21;95111.28;;;25.53;82.61
28626;BME280;18905;42.668;23.364;2022-07-25T04:35:47;95107.75;;;26.16;81.12
28626;BME280;18905;42.668;23.364;2022-07-25T04:38:12;95104.16;;;26.45;77.56
28626;BME280;18905;42.668;23.364;2022-07-25T04:40:38;95109.22;;;26.77;77.74
28626;BME280;18905;42.668;23.364;2022-07-25T04:43:04;95109.47;;;25.36;86.84
28626;BME280;18905;42.668;23.364;2022-07-25T04:45:31;95068.16;;;25.59;84.11
28626;BME280;18905;42.668;23.364;2022-07-25T04:47:56;95104.22;;;25.82;84.15
28626;BME280;18905;42.668;23.364;2022-07-25T04:50:22;95113.69;;;25.84;85.83
28626;BME280;18905;42.668;23.364;2022-07-25T04:52:48;95085.81;;;26.55;79.75
28626;BME280;18905;42.668;23.364;2022-07-25T04:55:13;95110.34;;;26.56;80.63
28626;BME280;18905;42.668;23.364;2022-07-25T04:57:39;95093.09;;;26.95;77.17
28626;BME280;18905;42.668;23.364;2022-07-25T05:00:06;95108.09;;;27.24;75.66
28626;BME280;18905;42.668;23.364;2022-07-25T05:02:33;95112.56;;;26.68;78.01
28626;BME280;18905;42.668;23.364;2022-07-25T05:04:58;95113.00;;;26.37;83.51
28626;BME280;18905;42.668;23.364;2022-07-25T05:07:24;95104.78;;;26.03;85.66
28626;BME280;18905;42.668;23.364;2022-07-25T05:09:49;95115.72;;;25.77;84.89
28626;BME280;18905;42.668;23.364;2022-07-25T05:12:15;95123.31;;;25.73;87.71
28626;BME280;18905;42.668;23.364;2022-07-25T05:14:40;95118.66;;;25.63;86.76
28626;BME280;18905;42.668;23.364;2022-07-25T05:17:06;95100.06;;;25.67;88.66
28626;BME280;18905;42.668;23.364;2022-07-25T05:19:31;95121.88;;;25.61;90.48
28626;BME280;18905;42.668;23.364;2022-07-25T05:21:56;95124.47;;;25.72;86.17
28626;BME280;18905;42.668;23.364;2022-07-25T05:24:22;95096.69;;;25.12;87.11
28626;BME280;18905;42.668;23.364;2022-07-25T05:26:48;95128.66;;;25.87;89.75
28626;BME280;18905;42.668;23.364;2022-07-25T05:29:14;95117.88;;;26.56;83.58
28626;BME280;18905;42.668;23.364;2022-07-25T05:31:40;95125.50;;;26.48;81.87
28626;BME280;18905;42.668;23.364;2022-07-25T05:34:05;95130.41;;;26.64;85.63
28626;BME280;18905;42.668;23.364;2022-07-25T05:36:31;95120.25;;;26.27;84.49
28626;BME280;18905;42.668;23.364;2022-07-25T05:38:56;95115.13;;;26.26;82.72
28626;BME280;18905;42.668;23.364;2022-07-25T05:41:21;95101.41;;;26.19;80.23
28626;BME280;18905;42.668;23.364;2022-07-25T05:43:47;95116.75;;;26.50;82.22
28626;BME280;18905;42.668;23.364;2022-07-25T05:46:13;95116.13;;;26.39;80.00
28626;BME280;18905;42.668;23.364;2022-07-25T05:48:40;95126.66;;;26.21;84.44
28626;BME280;18905;42.668;23.364;2022-07-25T05:51:05;95117.91;;;26.26;82.75
28626;BME280;18905;42.668;23.364;2022-07-25T05:53:31;95118.97;;;26.05;85.65
28626;BME280;18905;42.668;23.364;2022-07-25T05:55:56;95106.06;;;25.92;84.26
28626;BME280;18905;42.668;23.364;2022-07-25T05:58:22;95114.75;;;27.03;77.71
28626;BME280;18905;42.668;23.364;2022-07-25T06:00:48;95097.88;;;27.40;75.53
28626;BME280;18905;42.668;23.364;2022-07-25T06:03:15;95102.38;;;27.08;76.02
28626;BME280;18905;42.668;23.364;2022-07-25T06:05:42;95102.94;;;26.76;81.93
28626;BME280;18905;42.668;23.364;2022-07-25T06:08:07;95110.38;;;26.53;78.98
28626;BME280;18905;42.668;23.364;2022-07-25T06:10:33;95091.66;;;27.10;77.96
28626;BME280;18905;42.668;23.364;2022-07-25T06:12:58;95103.34;;;27.44;76.01
28626;BME280;18905;42.668;23.364;2022-07-25T06:15:23;95103.03;;;28.00;76.88
28626;BME280;18905;42.668;23.364;2022-07-25T06:17:49;95098.44;;;27.51;73.54
28626;BME280;18905;42.668;23.364;2022-07-25T06:20:14;95078.16;;;27.12;74.78
28626;BME280;18905;42.668;23.364;2022-07-25T06:22:39;95108.34;;;27.06;76.11
28626;BME280;18905;42.668;23.364;2022-07-25T06:25:05;95114.00;;;27.88;74.08
28626;BME280;18905;42.668;23.364;2022-07-25T06:27:31;95098.00;;;27.33;74.57
28626;BME280;18905;42.668;23.364;2022-07-25T06:29:56;95107.59;;;27.91;74.25
28626;BME280;18905;42.668;23.364;2022-07-25T06:32:22;95096.44;;;28.30;70.44
28626;BME280;18905;42.668;23.364;2022-07-25T06:34:48;95095.47;;;28.88;72.41
28626;BME280;18905;42.668;23.364;2022-07-25T06:37:13;95098.03;;;28.83;68.19
28626;BME280;18905;42.668;23.364;2022-07-25T06:39:40;95105.06;;;29.19;65.83
28626;BME280;18905;42.668;23.364;2022-07-25T06:42:05;95083.75;;;28.81;65.64
28626;BME280;18905;42.668;23.364;2022-07-25T06:44:32;95097.81;;;28.22;68.15
28626;BME280;18905;42.668;23.364;2022-07-25T06:46:59;95083.19;;;29.21;63.39
28626;BME280;18905;42.668;23.364;2022-07-25T06:49:24;95104.91;;;29.26;64.94
28626;BME280;18905;42.668;23.364;2022-07-25T06:51:49;95092.09;;;28.65;65.40
28626;BME280;18905;42.668;23.364;2022-07-25T06:54:15;95097.38;;;28.59;67.60
28626;BME280;18905;42.668;23.364;2022-07-25T06:56:42;95072.38;;;28.91;62.74
28626;BME280;18905;42.668;23.364;2022-07-25T06:59:08;95048.00;;;28.51;66.16
28626;BME280;18905;42.668;23.364;2022-07-25T07:01:33;95081.59;;;29.93;60.13
28626;BME280;18905;42.668;23.364;2022-07-25T07:03:59;95079.44;;;30.13;58.63
28626;BME280;18905;42.668;23.364;2022-07-25T07:06:24;95086.28;;;30.62;57.63
28626;BME280;18905;42.668;23.364;2022-07-25T07:08:50;95078.06;;;30.05;58.96
28626;BME280;18905;42.668;23.364;2022-07-25T07:11:15;95084.84;;;30.33;59.98
28626;BME280;18905;42.668;23.364;2022-07-25T07:13:41;95086.03;;;30.32;57.71
28626;BME280;18905;42.668;23.364;2022-07-25T07:16:07;95087.09;;;30.75;54.50
28626;BME280;18905;42.668;23.364;2022-07-25T07:18:33;95073.31;;;31.18;53.34
28626;BME280;18905;42.668;23.364;2022-07-25T07:20:58;95057.78;;;31.64;51.23
28626;BME280;18905;42.668;23.364;2022-07-25T07:23:24;95077.13;;;30.37;53.35
28626;BME280;18905;42.668;23.364;2022-07-25T07:25:49;95073.88;;;29.28;56.50
28626;BME280;18905;42.668;23.364;2022-07-25T07:28:15;95072.78;;;29.95;55.81
28626;BME280;18905;42.668;23.364;2022-07-25T07:30:40;95057.41;;;29.78;56.20
28626;BME280;18905;42.668;23.364;2022-07-25T07:33:06;95078.84;;;31.43;49.30
28626;BME280;18905;42.668;23.364;2022-07-25T07:35:31;95046.38;;;33.50;43.20
28626;BME280;18905;42.668;23.364;2022-07-25T07:37:56;95024.19;;;31.33;46.79
28626;BME280;18905;42.668;23.364;2022-07-25T07:40:22;95076.81;;;30.47;52.13
28626;BME280;18905;42.668;23.364;2022-07-25T07:42:49;95074.88;;;32.30;48.54
28626;BME280;18905;42.668;23.364;2022-07-25T07:45:22;95064.19;;;34.52;42.79
28626;BME280;18905;42.668;23.364;2022-07-25T07:47:50;95077.75;;;34.53;40.74
28626;BME280;18905;42.668;23.364;2022-07-25T07:50:17;95068.00;;;34.22;40.25
28626;BME280;18905;42.668;23.364;2022-07-25T07:52:44;95078.44;;;34.30;39.95
28626;BME280;18905;42.668;23.364;2022-07-25T07:55:10;95081.69;;;34.38;40.13
28626;BME280;18905;42.668;23.364;2022-07-25T07:57:55;95047.91;;;34.14;38.53
28626;BME280;18905;42.668;23.364;2022-07-25T08:00:21;95065.13;;;34.99;37.30
28626;BME280;18905;42.668;23.364;2022-07-25T08:02:49;95056.66;;;33.53;41.60
28626;BME280;18905;42.668;23.364;2022-07-25T08:05:30;95068.72;;;35.00;37.63
28626;BME280;18905;42.668;23.364;2022-07-25T08:07:57;95070.13;;;35.75;36.78
28626;BME280;18905;42.668;23.364;2022-07-25T08:10:25;95072.03;;;36.07;36.80
28626;BME280;18905;42.668;23.364;2022-07-25T08:12:52;95071.38;;;35.74;36.93
28626;BME280;18905;42.668;23.364;2022-07-25T08:15:18;95057.81;;;35.49;36.19
28626;BME280;18905;42.668;23.364;2022-07-25T08:17:45;95054.72;;;34.49;38.38
28626;BME280;18905;42.668;23.364;2022-07-25T08:20:12;95069.38;;;33.36;40.66
28626;BME280;18905;42.668;23.364;2022-07-25T08:22:39;95050.63;;;33.91;39.13
28626;BME280;18905;42.668;23.364;2022-07-25T08:25:11;95066.59;;;34.35;38.80
28626;BME280;18905;42.668;23.364;2022-07-25T08:27:37;95062.63;;;35.01;37.61
28626;BME280;18905;42.668;23.364;2022-07-25T08:30:04;95061.44;;;34.43;37.78
28626;BME280;18905;42.668;23.364;2022-07-25T08:32:30;95034.50;;;35.58;34.80
28626;BME280;18905;42.668;23.364;2022-07-25T08:34:56;95061.88;;;35.24;35.87
28626;BME280;18905;42.668;23.364;2022-07-25T08:37:21;95005.34;;;34.84;36.40
28626;BME280;18905;42.668;23.364;2022-07-25T08:39:47;95024.19;;;34.51;38.07
28626;BME280;18905;42.668;23.364;2022-07-25T08:42:13;95016.09;;;33.67;38.74
28626;BME280;18905;42.668;23.364;2022-07-25T08:44:41;95042.81;;;33.50;39.50
28626;BME280;18905;42.668;23.364;2022-07-25T08:47:08;95024.28;;;33.25;39.46
28626;BME280;18905;42.668;23.364;2022-07-25T08:49:34;95047.00;;;32.79;41.45
28626;BME280;18905;42.668;23.364;2022-07-25T08:52:00;95046.31;;;35.14;36.48
28626;BME280;18905;42.668;23.364;2022-07-25T08:54:26;95021.97;;;34.55;37.11
28626;BME280;18905;42.668;23.364;2022-07-25T08:56:52;95059.69;;;34.45;38.28
28626;BME280;18905;42.668;23.364;2022-07-25T08:59:17;95062.16;;;34.61;38.01
28626;BME280;18905;42.668;23.364;2022-07-25T09:01:43;95045.53;;;34.49;38.04
28626;BME280;18905;42.668;23.364;2022-07-25T09:04:08;95058.59;;;34.93;38.30
28626;BME280;18905;42.668;23.364;2022-07-25T09:06:34;95039.94;;;35.38;35.47
28626;BME280;18905;42.668;23.364;2022-07-25T09:09:00;95048.00;;;35.21;37.55
28626;BME280;18905;42.668;23.364;2022-07-25T09:13:59;94992.91;;;35.71;35.69
28626;BME280;18905;42.668;23.364;2022-07-25T09:16:30;95011.47;;;36.06;33.96
28626;BME280;18905;42.668;23.364;2022-07-25T09:19:17;95037.88;;;35.47;35.68
28626;BME280;18905;42.668;23.364;2022-07-25T09:21:44;95034.47;;;35.81;36.07
28626;BME280;18905;42.668;23.364;2022-07-25T09:24:11;95031.41;;;37.50;33.34
28626;BME280;18905;42.668;23.364;2022-07-25T09:26:48;95033.94;;;37.48;34.83
28626;BME280;18905;42.668;23.364;2022-07-25T09:29:31;95020.38;;;35.28;36.52
28626;BME280;18905;42.668;23.364;2022-07-25T09:31:59;95030.94;;;35.10;35.64
28626;BME280;18905;42.668;23.364;2022-07-25T09:34:45;94979.41;;;35.22;35.57
28626;BME280;18905;42.668;23.364;2022-07-25T09:37:12;95005.81;;;35.92;34.38
28626;BME280;18905;42.668;23.364;2022-07-25T09:39:45;95030.81;;;34.72;35.24
28626;BME280;18905;42.668;23.364;2022-07-25T09:42:24;95020.88;;;34.02;38.52
28626;BME280;18905;42.668;23.364;2022-07-25T09:45:11;95018.69;;;34.57;39.39
28626;BME280;18905;42.668;23.364;2022-07-25T09:47:56;95024.94;;;34.52;37.61
28626;BME280;18905;42.668;23.364;2022-07-25T09:50:23;95020.34;;;35.76;35.71
28626;BME280;18905;42.668;23.364;2022-07-25T09:52:54;95025.84;;;34.07;37.01
28626;BME280;18905;42.668;23.364;2022-07-25T09:55:21;95009.78;;;34.26;36.70
28626;BME280;18905;42.668;23.364;2022-07-25T09:57:48;94970.03;;;34.78;34.78
28626;BME280;18905;42.668;23.364;2022-07-25T10:00:18;94973.41;;;35.05;35.32
28626;BME280;18905;42.668;23.364;2022-07-25T10:05:43;95026.25;;;35.07;35.43
28626;BME280;18905;42.668;23.364;2022-07-25T10:08:13;95012.63;;;36.00;32.19
28626;BME280;18905;42.668;23.364;2022-07-25T10:10:40;94977.63;;;35.34;34.82
28626;BME280;18905;42.668;23.364;2022-07-25T10:18:04;94987.56;;;35.11;31.94
28626;BME280;18905;42.668;23.364;2022-07-25T10:20:32;94965.66;;;33.94;32.48
28626;BME280;18905;42.668;23.364;2022-07-25T10:22:58;94994.28;;;34.48;31.80
28626;BME280;18905;42.668;23.364;2022-07-25T10:25:23;94992.38;;;34.13;32.91
28626;BME280;18905;42.668;23.364;2022-07-25T10:27:51;94992.19;;;35.61;32.86
28626;BME280;18905;42.668;23.364;2022-07-25T10:30:24;94954.69;;;35.11;32.76
28626;BME280;18905;42.668;23.364;2022-07-25T10:33:02;94997.69;;;34.02;34.68
28626;BME280;18905;42.668;23.364;2022-07-25T10:35:31;94996.13;;;34.60;35.41
28626;BME280;18905;42.668;23.364;2022-07-25T10:37:57;94964.59;;;34.98;34.45
28626;BME280;18905;42.668;23.364;2022-07-25T10:40:27;94992.00;;;35.65;33.78
28626;BME280;18905;42.668;23.364;2022-07-25T10:43:02;94963.69;;;35.77;32.56
28626;BME280;18905;42.668;23.364;2022-07-25T10:45:48;94989.00;;;35.30;32.76
28626;BME280;18905;42.668;23.364;2022-07-25T10:48:26;94984.94;;;36.22;32.82
28626;BME280;18905;42.668;23.364;2022-07-25T10:50:59;94995.53;;;35.74;31.94
28626;BME280;18905;42.668;23.364;2022-07-25T10:53:45;94977.34;;;35.99;31.77
28626;BME280;18905;42.668;23.364;2022-07-25T10:56:15;94984.59;;;35.38;31.50
28626;BME280;18905;42.668;23.364;2022-07-25T11:01:13;94973.03;;;34.15;32.74
28626;BME280;18905;42.668;23.364;2022-07-25T11:03:40;94972.84;;;34.36;32.74
28626;BME280;18905;42.668;23.364;2022-07-25T11:06:10;94923.31;;;33.92;32.80
28626;BME280;18905;42.668;23.364;2022-07-25T11:08:35;94969.13;;;34.95;31.74
28626;BME280;18905;42.668;23.364;2022-07-25T11:11:01;94960.34;;;35.26;32.58
28626;BME280;18905;42.668;23.364;2022-07-25T11:13:27;94941.94;;;35.49;29.87
28626;BME280;18905;42.668;23.364;2022-07-25T11:15:57;94970.53;;;35.76;30.20
28626;BME280;18905;42.668;23.364;2022-07-25T11:18:52;94958.63;;;36.39;29.01
28626;BME280;18905;42.668;23.364;2022-07-25T11:21:19;94939.66;;;36.34;30.06
28626;BME280;18905;42.668;23.364;2022-07-25T11:23:49;94922.00;;;36.34;29.57
28626;BME280;18905;42.668;23.364;2022-07-25T11:26:15;94924.25;;;36.30;29.97
28626;BME280;18905;42.668;23.364;2022-07-25T11:28:43;94954.81;;;34.61;32.91
28626;BME280;18905;42.668;23.364;2022-07-25T11:31:09;94956.44;;;34.44;32.47
28626;BME280;18905;42.668;23.364;2022-07-25T11:33:36;94917.94;;;34.12;32.89
28626;BME280;18905;42.668;23.364;2022-07-25T11:36:02;94909.19;;;34.60;31.45
28626;BME280;18905;42.668;23.364;2022-07-25T11:38:28;94881.78;;;34.23;32.81
28626;BME280;18905;42.668;23.364;2022-07-25T11:40:53;94944.63;;;35.19;32.39
28626;BME280;18905;42.668;23.364;2022-07-25T11:43:22;94899.03;;;35.63;29.55
28626;BME280;18905;42.668;23.364;2022-07-25T11:46:04;94942.47;;;35.91;30.02
28626;BME280;18905;42.668;23.364;2022-07-25T11:48:36;94938.47;;;37.50;28.32
28626;BME280;18905;42.668;23.364;2022-07-25T11:51:17;94933.53;;;37.25;28.26
28626;BME280;18905;42.668;23.364;2022-07-25T11:53:48;94930.31;;;37.12;28.09
28626;BME280;18905;42.668;23.364;2022-07-25T11:56:15;94917.41;;;36.85;29.24
28626;BME280;18905;42.668;23.364;2022-07-25T11:58:42;94932.28;;;36.22;30.57
28626;BME280;18905;42.668;23.364;2022-07-25T12:01:13;94924.81;;;36.05;30.77
28626;BME280;18905;42.668;23.364;2022-07-25T12:03:39;94925.94;;;36.56;30.65
28626;BME280;18905;42.668;23.364;2022-07-25T12:06:11;94924.72;;;35.99;30.84
28626;BME280;18905;42.668;23.364;2022-07-25T12:08:39;94875.66;;;36.44;30.39
28626;BME280;18905;42.668;23.364;2022-07-25T12:11:19;94914.94;;;36.93;29.25
28626;BME280;18905;42.668;23.364;2022-07-25T12:13:45;94916.38;;;36.34;29.80
28626;BME280;18905;42.668;23.364;2022-07-25T12:16:11;94863.31;;;36.96;31.25
28626;BME280;18905;42.668;23.364;2022-07-25T12:18:37;94908.75;;;36.05;31.03
28626;BME280;18905;42.668;23.364;2022-07-25T12:21:03;94912.03;;;35.75;31.35
28626;BME280;18905;42.668;23.364;2022-07-25T12:23:29;94911.31;;;35.12;31.29
28626;BME280;18905;42.668;23.364;2022-07-25T12:25:55;94893.47;;;35.24;31.65
28626;BME280;18905;42.668;23.364;2022-07-25T12:28:20;94907.53;;;35.39;30.95
28626;BME280;18905;42.668;23.364;2022-07-25T12:30:47;94905.78;;;35.42;30.71
28626;BME280;18905;42.668;23.364;2022-07-25T12:33:13;94903.22;;;35.82;31.80
28626;BME280;18905;42.668;23.364;2022-07-25T12:35:42;94904.09;;;35.88;30.86
28626;BME280;18905;42.668;23.364;2022-07-25T12:38:08;94889.34;;;35.35;32.19
28626;BME280;18905;42.668;23.364;2022-07-25T12:40:35;94892.59;;;34.71;33.21
28626;BME280;18905;42.668;23.364;2022-07-25T12:43:01;94901.41;;;34.55;33.60
28626;BME280;18905;42.668;23.364;2022-07-25T12:45:26;94854.00;;;35.28;32.71
28626;BME280;18905;42.668;23.364;2022-07-25T12:47:52;94872.84;;;35.28;32.90
28626;BME280;18905;42.668;23.364;2022-07-25T12:50:17;94851.38;;;35.97;31.86
28626;BME280;18905;42.668;23.364;2022-07-25T12:52:44;94854.94;;;36.27;29.16
28626;BME280;18905;42.668;23.364;2022-07-25T12:55:12;94881.91;;;36.53;29.00
28626;BME280;18905;42.668;23.364;2022-07-25T12:57:38;94882.88;;;35.87;28.81
28626;BME280;18905;42.668;23.364;2022-07-25T13:00:06;94865.94;;;35.67;29.50
28626;BME280;18905;42.668;23.364;2022-07-25T13:02:32;94861.28;;;35.78;29.39